sensor_id;sensor_type;location;lat;lon;timestamp;P1;durP1;ratioP1;P2;durP2;ratioP2
55090;SDS011;40985;53.180;5.800;2023-06-05T00:01:55;4.30;;;2.70;;
55090;SDS011;40985;53.180;5.800;2023-06-05T00:04:21;2.83;;;2.63;;
55090;SDS011;40985;53.180;5.800;2023-06-05T00:06:48;3.90;;;2.47;;
55090;SDS011;40985;53.180;5.800;2023-06-05T00:09:15;5.00;;;3.38;;
55090;SDS011;40985;53.180;5.800;2023-06-05T00:11:41;2.83;;;2.28;;
55090;SDS011;40985;53.180;5.800;2023-06-05T00:14:07;2.40;;;1.40;;
55090;SDS011;40985;53.180;5.800;2023-06-05T00:16:34;3.03;;;2.83;;
55090;SDS011;40985;53.180;5.800;2023-06-05T00:19:00;1.77;;;1.67;;
55090;SDS011;40985;53.180;5.800;2023-06-05T00:21:28;2.53;;;1.48;;
55090;SDS011;40985;53.180;5.800;2023-06-05T00:23:53;2.75;;;2.55;;
55090;SDS011;40985;53.180;5.800;2023-06-05T00:26:19;3.47;;;2.90;;
55090;SDS011;40985;53.180;5.800;2023-06-05T00:28:45;3.90;;;2.30;;
55090;SDS011;40985;53.180;5.800;2023-06-05T00:31:11;2.25;;;2.03;;
55090;SDS011;40985;53.180;5.800;2023-06-05T00:33:38;2.60;;;1.40;;
55090;SDS011;40985;53.180;5.800;2023-06-05T00:36:04;2.08;;;1.60;;
55090;SDS011;40985;53.180;5.800;2023-06-05T00:38:30;1.73;;;1.60;;
55090;SDS011;40985;53.180;5.800;2023-06-05T00:40:56;1.60;;;1.50;;
55090;SDS011;40985;53.180;5.800;2023-06-05T00:43:22;3.65;;;1.50;;
55090;SDS011;40985;53.180;5.800;2023-06-05T00:45:47;1.77;;;1.35;;
55090;SDS011;40985;53.180;5.800;2023-06-05T00:48:15;1.60;;;1.25;;
55090;SDS011;40985;53.180;5.800;2023-06-05T00:50:41;0.80;;;0.73;;
55090;SDS011;40985;53.180;5.800;2023-06-05T00:53:07;1.45;;;1.02;;
55090;SDS011;40985;53.180;5.800;2023-06-05T00:55:33;1.50;;;1.08;;
55090;SDS011;40985;53.180;5.800;2023-06-05T00:58:02;1.90;;;0.88;;
55090;SDS011;40985;53.180;5.800;2023-06-05T01:00:29;2.05;;;1.23;;
55090;SDS011;40985;53.180;5.800;2023-06-05T01:02:55;2.22;;;1.00;;
55090;SDS011;40985;53.180;5.800;2023-06-05T01:05:23;1.73;;;1.40;;
55090;SDS011;40985;53.180;5.800;2023-06-05T01:07:49;2.15;;;1.52;;
55090;SDS011;40985;53.180;5.800;2023-06-05T01:10:15;2.67;;;1.65;;
55090;SDS011;40985;53.180;5.800;2023-06-05T01:12:53;2.63;;;1.02;;
55090;SDS011;40985;53.180;5.800;2023-06-05T01:15:29;3.08;;;0.90;;
55090;SDS011;40985;53.180;5.800;2023-06-05T01:17:58;1.65;;;0.77;;
55090;SDS011;40985;53.180;5.800;2023-06-05T01:20:31;1.67;;;0.93;;
55090;SDS011;40985;53.180;5.800;2023-06-05T01:22:58;1.88;;;0.90;;
55090;SDS011;40985;53.180;5.800;2023-06-05T01:25:24;1.55;;;0.60;;
55090;SDS011;40985;53.180;5.800;2023-06-05T01:30:49;1.13;;;0.50;;
55090;SDS011;40985;53.180;5.800;2023-06-05T01:33:30;1.70;;;0.50;;
55090;SDS011;40985;53.180;5.800;2023-06-05T01:36:06;1.95;;;0.60;;
55090;SDS011;40985;53.180;5.800;2023-06-05T01:38:35;1.02;;;0.52;;
55090;SDS011;40985;53.180;5.800;2023-06-05T01:41:01;2.42;;;0.77;;
55090;SDS011;40985;53.180;5.800;2023-06-05T01:43:30;0.95;;;0.50;;
55090;SDS011;40985;53.180;5.800;2023-06-05T01:45:57;2.08;;;0.77;;
55090;SDS011;40985;53.180;5.800;2023-06-05T01:48:25;0.70;;;0.43;;
55090;SDS011;40985;53.180;5.800;2023-06-05T01:50:56;0.80;;;0.50;;
55090;SDS011;40985;53.180;5.800;2023-06-05T01:53:22;2.60;;;0.50;;
55090;SDS011;40985;53.180;5.800;2023-06-05T01:55:48;1.48;;;0.47;;
55090;SDS011;40985;53.180;5.800;2023-06-05T01:58:17;2.03;;;0.40;;
55090;SDS011;40985;53.180;5.800;2023-06-05T02:00:43;1.17;;;0.70;;
55090;SDS011;40985;53.180;5.800;2023-06-05T02:03:10;1.05;;;0.57;;
55090;SDS011;40985;53.180;5.800;2023-06-05T02:05:36;0.50;;;0.30;;
55090;SDS011;40985;53.180;5.800;2023-06-05T02:08:01;1.48;;;0.45;;
55090;SDS011;40985;53.180;5.800;2023-06-05T02:10:30;0.98;;;0.50;;
55090;SDS011;40985;53.180;5.800;2023-06-05T02:12:56;1.17;;;0.63;;
55090;SDS011;40985;53.180;5.800;2023-06-05T02:15:22;0.85;;;0.60;;
55090;SDS011;40985;53.180;5.800;2023-06-05T02:17:48;0.70;;;0.60;;
55090;SDS011;40985;53.180;5.800;2023-06-05T02:20:19;1.33;;;0.43;;
55090;SDS011;40985;53.180;5.800;2023-06-05T02:22:46;1.35;;;0.55;;
55090;SDS011;40985;53.180;5.800;2023-06-05T02:25:15;0.98;;;0.60;;
55090;SDS011;40985;53.180;5.800;2023-06-05T02:27:41;1.00;;;0.57;;
55090;SDS011;40985;53.180;5.800;2023-06-05T02:30:07;2.42;;;0.50;;
55090;SDS011;40985;53.180;5.800;2023-06-05T02:32:33;1.52;;;0.50;;
55090;SDS011;40985;53.180;5.800;2023-06-05T02:35:01;2.05;;;0.55;;
55090;SDS011;40985;53.180;5.800;2023-06-05T02:37:27;1.42;;;0.50;;
55090;SDS011;40985;53.180;5.800;2023-06-05T02:39:53;3.20;;;0.50;;
55090;SDS011;40985;53.180;5.800;2023-06-05T02:42:19;1.02;;;0.50;;
55090;SDS011;40985;53.180;5.800;2023-06-05T02:44:45;0.70;;;0.65;;
55090;SDS011;40985;53.180;5.800;2023-06-05T02:47:12;1.42;;;0.50;;
55090;SDS011;40985;53.180;5.800;2023-06-05T02:49:37;1.90;;;0.63;;
55090;SDS011;40985;53.180;5.800;2023-06-05T02:52:03;1.58;;;0.50;;
55090;SDS011;40985;53.180;5.800;2023-06-05T02:54:29;1.25;;;1.00;;
55090;SDS011;40985;53.180;5.800;2023-06-05T02:56:55;3.45;;;1.35;;
55090;SDS011;40985;53.180;5.800;2023-06-05T02:59:25;1.90;;;1.73;;
55090;SDS011;40985;53.180;5.800;2023-06-05T03:01:52;2.28;;;2.08;;
55090;SDS011;40985;53.180;5.800;2023-06-05T03:04:18;3.20;;;2.95;;
55090;SDS011;40985;53.180;5.800;2023-06-05T03:06:49;2.90;;;2.60;;
55090;SDS011;40985;53.180;5.800;2023-06-05T03:09:16;2.75;;;2.55;;
55090;SDS011;40985;53.180;5.800;2023-06-05T03:11:43;3.90;;;3.42;;
55090;SDS011;40985;53.180;5.800;2023-06-05T03:14:08;3.55;;;3.25;;
55090;SDS011;40985;53.180;5.800;2023-06-05T03:16:34;5.00;;;3.80;;
55090;SDS011;40985;53.180;5.800;2023-06-05T03:19:07;6.35;;;3.72;;
55090;SDS011;40985;53.180;5.800;2023-06-05T03:21:34;3.88;;;3.58;;
55090;SDS011;40985;53.180;5.800;2023-06-05T03:24:01;3.40;;;2.97;;
55090;SDS011;40985;53.180;5.800;2023-06-05T03:26:27;4.38;;;2.95;;
55090;SDS011;40985;53.180;5.800;2023-06-05T03:28:54;4.90;;;3.22;;
55090;SDS011;40985;53.180;5.800;2023-06-05T03:31:19;4.68;;;3.85;;
55090;SDS011;40985;53.180;5.800;2023-06-05T03:33:45;3.05;;;2.85;;
55090;SDS011;40985;53.180;5.800;2023-06-05T03:36:11;2.13;;;1.98;;
55090;SDS011;40985;53.180;5.800;2023-06-05T03:38:36;3.20;;;2.90;;
55090;SDS011;40985;53.180;5.800;2023-06-05T03:41:02;2.17;;;2.03;;
55090;SDS011;40985;53.180;5.800;2023-06-05T03:43:28;2.38;;;2.17;;
55090;SDS011;40985;53.180;5.800;2023-06-05T03:45:53;2.90;;;1.92;;
55090;SDS011;40985;53.180;5.800;2023-06-05T03:48:19;3.25;;;2.13;;
55090;SDS011;40985;53.180;5.800;2023-06-05T03:50:45;2.88;;;2.40;;
55090;SDS011;40985;53.180;5.800;2023-06-05T03:53:12;5.40;;;2.25;;
55090;SDS011;40985;53.180;5.800;2023-06-05T03:55:38;3.10;;;2.30;;
55090;SDS011;40985;53.180;5.800;2023-06-05T03:58:10;2.45;;;2.25;;
55090;SDS011;40985;53.180;5.800;2023-06-05T04:00:43;2.80;;;1.58;;
55090;SDS011;40985;53.180;5.800;2023-06-05T04:03:15;2.50;;;1.52;;
55090;SDS011;40985;53.180;5.800;2023-06-05T04:05:41;2.25;;;1.63;;
55090;SDS011;40985;53.180;5.800;2023-06-05T04:08:08;1.38;;;1.27;;
55090;SDS011;40985;53.180;5.800;2023-06-05T04:10:35;2.03;;;1.08;;
55090;SDS011;40985;53.180;5.800;2023-06-05T04:13:01;1.70;;;1.27;;
55090;SDS011;40985;53.180;5.800;2023-06-05T04:15:28;1.75;;;1.20;;
55090;SDS011;40985;53.180;5.800;2023-06-05T04:17:54;2.85;;;1.48;;
55090;SDS011;40985;53.180;5.800;2023-06-05T04:20:20;1.90;;;1.00;;
55090;SDS011;40985;53.180;5.800;2023-06-05T04:22:46;2.78;;;1.58;;
55090;SDS011;40985;53.180;5.800;2023-06-05T04:25:12;1.60;;;0.70;;
55090;SDS011;40985;53.180;5.800;2023-06-05T04:27:38;2.25;;;0.80;;
55090;SDS011;40985;53.180;5.800;2023-06-05T04:30:06;0.80;;;0.50;;
55090;SDS011;40985;53.180;5.800;2023-06-05T04:32:35;1.05;;;0.47;;
55090;SDS011;40985;53.180;5.800;2023-06-05T04:35:03;0.93;;;0.40;;
55090;SDS011;40985;53.180;5.800;2023-06-05T04:37:30;2.65;;;0.68;;
55090;SDS011;40985;53.180;5.800;2023-06-05T04:39:56;1.40;;;0.70;;
55090;SDS011;40985;53.180;5.800;2023-06-05T04:42:24;2.45;;;0.60;;
55090;SDS011;40985;53.180;5.800;2023-06-05T04:44:53;1.33;;;0.50;;
55090;SDS011;40985;53.180;5.800;2023-06-05T04:47:22;0.70;;;0.40;;
55090;SDS011;40985;53.180;5.800;2023-06-05T04:49:48;0.55;;;0.30;;
55090;SDS011;40985;53.180;5.800;2023-06-05T04:52:16;0.70;;;0.30;;
55090;SDS011;40985;53.180;5.800;2023-06-05T04:54:42;1.35;;;0.30;;
55090;SDS011;40985;53.180;5.800;2023-06-05T04:57:09;0.95;;;0.30;;
55090;SDS011;40985;53.180;5.800;2023-06-05T04:59:35;0.50;;;0.30;;
55090;SDS011;40985;53.180;5.800;2023-06-05T05:02:02;0.95;;;0.30;;
55090;SDS011;40985;53.180;5.800;2023-06-05T05:04:28;0.50;;;0.28;;
55090;SDS011;40985;53.180;5.800;2023-06-05T05:06:55;0.50;;;0.30;;
55090;SDS011;40985;53.180;5.800;2023-06-05T05:09:26;1.13;;;0.30;;
55090;SDS011;40985;53.180;5.800;2023-06-05T05:11:52;0.90;;;0.40;;
55090;SDS011;40985;53.180;5.800;2023-06-05T05:14:18;1.13;;;0.30;;
55090;SDS011;40985;53.180;5.800;2023-06-05T05:16:43;1.15;;;0.30;;
55090;SDS011;40985;53.180;5.800;2023-06-05T05:19:09;0.95;;;0.30;;
55090;SDS011;40985;53.180;5.800;2023-06-05T05:21:35;1.45;;;0.45;;
55090;SDS011;40985;53.180;5.800;2023-06-05T05:24:01;1.15;;;0.82;;
55090;SDS011;40985;53.180;5.800;2023-06-05T05:26:27;1.10;;;0.52;;
55090;SDS011;40985;53.180;5.800;2023-06-05T05:28:53;1.17;;;0.60;;
55090;SDS011;40985;53.180;5.800;2023-06-05T05:31:19;2.60;;;0.50;;
55090;SDS011;40985;53.180;5.800;2023-06-05T05:33:44;0.98;;;0.45;;
55090;SDS011;40985;53.180;5.800;2023-06-05T05:36:10;1.13;;;0.55;;
55090;SDS011;40985;53.180;5.800;2023-06-05T05:38:36;4.35;;;1.13;;
55090;SDS011;40985;53.180;5.800;2023-06-05T05:41:01;1.90;;;0.57;;
55090;SDS011;40985;53.180;5.800;2023-06-05T05:43:27;1.70;;;0.80;;
55090;SDS011;40985;53.180;5.800;2023-06-05T05:45:53;1.85;;;1.15;;
55090;SDS011;40985;53.180;5.800;2023-06-05T05:48:18;1.85;;;0.90;;
55090;SDS011;40985;53.180;5.800;2023-06-05T05:50:44;1.23;;;0.90;;
55090;SDS011;40985;53.180;5.800;2023-06-05T05:53:10;2.75;;;1.35;;
55090;SDS011;40985;53.180;5.800;2023-06-05T05:55:36;4.70;;;1.38;;
55090;SDS011;40985;53.180;5.800;2023-06-05T05:58:01;16.90;;;3.80;;
55090;SDS011;40985;53.180;5.800;2023-06-05T06:00:27;8.27;;;2.50;;
55090;SDS011;40985;53.180;5.800;2023-06-05T06:02:53;3.65;;;1.98;;
55090;SDS011;40985;53.180;5.800;2023-06-05T06:05:18;5.95;;;2.60;;
55090;SDS011;40985;53.180;5.800;2023-06-05T06:07:45;3.72;;;2.20;;
55090;SDS011;40985;53.180;5.800;2023-06-05T06:10:11;5.95;;;2.45;;
55090;SDS011;40985;53.180;5.800;2023-06-05T06:12:37;4.40;;;2.10;;
55090;SDS011;40985;53.180;5.800;2023-06-05T06:15:04;2.95;;;2.08;;
55090;SDS011;40985;53.180;5.800;2023-06-05T06:17:30;2.17;;;1.75;;
55090;SDS011;40985;53.180;5.800;2023-06-05T06:19:56;1.30;;;1.20;;
55090;SDS011;40985;53.180;5.800;2023-06-05T06:22:22;1.98;;;1.30;;
55090;SDS011;40985;53.180;5.800;2023-06-05T06:24:48;3.30;;;1.70;;
55090;SDS011;40985;53.180;5.800;2023-06-05T06:27:15;2.78;;;1.90;;
55090;SDS011;40985;53.180;5.800;2023-06-05T06:29:48;3.03;;;1.67;;
55090;SDS011;40985;53.180;5.800;2023-06-05T06:32:17;3.00;;;1.85;;
55090;SDS011;40985;53.180;5.800;2023-06-05T06:34:43;2.97;;;2.22;;
55090;SDS011;40985;53.180;5.800;2023-06-05T06:37:10;2.28;;;1.52;;
55090;SDS011;40985;53.180;5.800;2023-06-05T06:39:37;4.18;;;1.30;;
55090;SDS011;40985;53.180;5.800;2023-06-05T06:42:03;2.28;;;1.73;;
55090;SDS011;40985;53.180;5.800;2023-06-05T06:44:30;2.30;;;1.23;;
55090;SDS011;40985;53.180;5.800;2023-06-05T06:46:55;2.00;;;1.80;;
55090;SDS011;40985;53.180;5.800;2023-06-05T06:49:21;3.78;;;2.08;;
55090;SDS011;40985;53.180;5.800;2023-06-05T06:51:47;2.55;;;1.90;;
55090;SDS011;40985;53.180;5.800;2023-06-05T06:54:13;4.95;;;1.98;;
55090;SDS011;40985;53.180;5.800;2023-06-05T06:56:38;2.35;;;1.58;;
55090;SDS011;40985;53.180;5.800;2023-06-05T06:59:10;5.35;;;2.20;;
55090;SDS011;40985;53.180;5.800;2023-06-05T07:01:41;2.55;;;1.92;;
55090;SDS011;40985;53.180;5.800;2023-06-05T07:04:09;3.80;;;1.80;;
55090;SDS011;40985;53.180;5.800;2023-06-05T07:06:35;3.22;;;1.42;;
55090;SDS011;40985;53.180;5.800;2023-06-05T07:09:01;4.60;;;2.30;;
55090;SDS011;40985;53.180;5.800;2023-06-05T07:11:26;3.65;;;2.17;;
55090;SDS011;40985;53.180;5.800;2023-06-05T07:13:52;2.40;;;2.17;;
55090;SDS011;40985;53.180;5.800;2023-06-05T07:16:19;2.42;;;2.03;;
55090;SDS011;40985;53.180;5.800;2023-06-05T07:18:45;2.05;;;1.85;;
55090;SDS011;40985;53.180;5.800;2023-06-05T07:21:11;2.13;;;1.40;;
55090;SDS011;40985;53.180;5.800;2023-06-05T07:23:37;3.10;;;1.83;;
55090;SDS011;40985;53.180;5.800;2023-06-05T07:26:04;3.80;;;1.67;;
55090;SDS011;40985;53.180;5.800;2023-06-05T07:28:30;3.67;;;1.92;;
55090;SDS011;40985;53.180;5.800;2023-06-05T07:30:55;3.55;;;1.65;;
55090;SDS011;40985;53.180;5.800;2023-06-05T07:33:21;2.78;;;1.95;;
55090;SDS011;40985;53.180;5.800;2023-06-05T07:35:46;3.03;;;2.70;;
55090;SDS011;40985;53.180;5.800;2023-06-05T07:38:13;2.35;;;2.15;;
55090;SDS011;40985;53.180;5.800;2023-06-05T07:40:40;3.78;;;2.33;;
55090;SDS011;40985;53.180;5.800;2023-06-05T07:43:05;1.75;;;1.55;;
55090;SDS011;40985;53.180;5.800;2023-06-05T07:45:31;1.88;;;1.10;;
55090;SDS011;40985;53.180;5.800;2023-06-05T07:47:57;2.00;;;1.20;;
55090;SDS011;40985;53.180;5.800;2023-06-05T07:50:22;2.10;;;1.40;;
55090;SDS011;40985;53.180;5.800;2023-06-05T07:52:48;1.42;;;0.93;;
55090;SDS011;40985;53.180;5.800;2023-06-05T07:55:14;2.85;;;1.00;;
55090;SDS011;40985;53.180;5.800;2023-06-05T07:57:40;1.20;;;1.10;;
55090;SDS011;40985;53.180;5.800;2023-06-05T08:00:06;1.00;;;0.75;;
55090;SDS011;40985;53.180;5.800;2023-06-05T08:02:35;2.17;;;0.75;;
55090;SDS011;40985;53.180;5.800;2023-06-05T08:05:02;1.00;;;0.82;;
55090;SDS011;40985;53.180;5.800;2023-06-05T08:07:28;1.40;;;1.20;;
55090;SDS011;40985;53.180;5.800;2023-06-05T08:09:54;2.28;;;1.20;;
55090;SDS011;40985;53.180;5.800;2023-06-05T08:12:19;2.63;;;0.85;;
55090;SDS011;40985;53.180;5.800;2023-06-05T08:14:45;2.08;;;1.40;;
55090;SDS011;40985;53.180;5.800;2023-06-05T08:17:11;2.65;;;1.90;;
55090;SDS011;40985;53.180;5.800;2023-06-05T08:19:36;3.40;;;2.25;;
55090;SDS011;40985;53.180;5.800;2023-06-05T08:22:02;3.95;;;2.72;;
55090;SDS011;40985;53.180;5.800;2023-06-05T08:24:30;1.77;;;1.50;;
55090;SDS011;40985;53.180;5.800;2023-06-05T08:26:56;2.35;;;1.30;;
55090;SDS011;40985;53.180;5.800;2023-06-05T08:29:24;1.83;;;1.20;;
55090;SDS011;40985;53.180;5.800;2023-06-05T08:31:50;2.70;;;2.00;;
55090;SDS011;40985;53.180;5.800;2023-06-05T08:34:15;2.92;;;2.08;;
55090;SDS011;40985;53.180;5.800;2023-06-05T08:36:42;2.92;;;2.20;;
55090;SDS011;40985;53.180;5.800;2023-06-05T08:39:07;3.92;;;2.50;;
55090;SDS011;40985;53.180;5.800;2023-06-05T08:41:34;6.68;;;2.30;;
55090;SDS011;40985;53.180;5.800;2023-06-05T08:44:01;4.22;;;2.03;;
55090;SDS011;40985;53.180;5.800;2023-06-05T08:46:30;2.20;;;1.92;;
55090;SDS011;40985;53.180;5.800;2023-06-05T08:48:57;2.60;;;2.40;;
55090;SDS011;40985;53.180;5.800;2023-06-05T08:51:22;2.50;;;2.25;;
55090;SDS011;40985;53.180;5.800;2023-06-05T08:53:54;4.30;;;2.65;;
55090;SDS011;40985;53.180;5.800;2023-06-05T08:56:26;4.40;;;2.45;;
55090;SDS011;40985;53.180;5.800;2023-06-05T08:58:53;2.95;;;1.80;;
55090;SDS011;40985;53.180;5.800;2023-06-05T09:01:20;2.15;;;1.95;;
55090;SDS011;40985;53.180;5.800;2023-06-05T09:03:45;2.85;;;2.65;;
55090;SDS011;40985;53.180;5.800;2023-06-05T09:06:11;4.85;;;3.17;;
55090;SDS011;40985;53.180;5.800;2023-06-05T09:08:37;3.28;;;2.92;;
55090;SDS011;40985;53.180;5.800;2023-06-05T09:13:48;4.00;;;3.70;;
55090;SDS011;40985;53.180;5.800;2023-06-05T09:16:14;4.28;;;3.90;;
55090;SDS011;40985;53.180;5.800;2023-06-05T09:18:53;3.80;;;3.47;;
55090;SDS011;40985;53.180;5.800;2023-06-05T09:21:20;3.45;;;3.05;;
55090;SDS011;40985;53.180;5.800;2023-06-05T09:23:46;2.67;;;2.47;;
55090;SDS011;40985;53.180;5.800;2023-06-05T09:26:12;3.20;;;2.65;;
55090;SDS011;40985;53.180;5.800;2023-06-05T09:28:53;3.20;;;2.90;;
55090;SDS011;40985;53.180;5.800;2023-06-05T09:31:19;4.18;;;3.15;;
55090;SDS011;40985;53.180;5.800;2023-06-05T09:33:53;4.22;;;3.92;;
55090;SDS011;40985;53.180;5.800;2023-06-05T09:36:20;3.33;;;2.97;;
55090;SDS011;40985;53.180;5.800;2023-06-05T09:38:46;3.13;;;2.88;;
55090;SDS011;40985;53.180;5.800;2023-06-05T09:41:13;4.50;;;4.10;;
55090;SDS011;40985;53.180;5.800;2023-06-05T09:43:39;3.42;;;2.75;;
55090;SDS011;40985;53.180;5.800;2023-06-05T09:46:06;5.70;;;3.72;;
55090;SDS011;40985;53.180;5.800;2023-06-05T09:48:31;4.30;;;3.35;;
55090;SDS011;40985;53.180;5.800;2023-06-05T09:51:07;5.03;;;3.33;;
55090;SDS011;40985;53.180;5.800;2023-06-05T09:53:33;3.60;;;3.30;;
55090;SDS011;40985;53.180;5.800;2023-06-05T09:56:02;3.70;;;3.38;;
55090;SDS011;40985;53.180;5.800;2023-06-05T09:58:29;3.15;;;2.85;;
55090;SDS011;40985;53.180;5.800;2023-06-05T10:00:55;4.35;;;2.97;;
55090;SDS011;40985;53.180;5.800;2023-06-05T10:03:25;3.33;;;3.03;;
55090;SDS011;40985;53.180;5.800;2023-06-05T10:05:53;3.20;;;2.75;;
55090;SDS011;40985;53.180;5.800;2023-06-05T10:08:20;3.63;;;3.05;;
55090;SDS011;40985;53.180;5.800;2023-06-05T10:10:46;5.93;;;4.03;;
55090;SDS011;40985;53.180;5.800;2023-06-05T10:13:13;4.50;;;3.50;;
55090;SDS011;40985;53.180;5.800;2023-06-05T10:15:39;6.57;;;3.92;;
55090;SDS011;40985;53.180;5.800;2023-06-05T10:18:06;3.70;;;3.40;;
55090;SDS011;40985;53.180;5.800;2023-06-05T10:20:32;3.28;;;3.08;;
55090;SDS011;40985;53.180;5.800;2023-06-05T10:23:01;3.65;;;3.35;;
55090;SDS011;40985;53.180;5.800;2023-06-05T10:25:27;3.33;;;3.05;;
55090;SDS011;40985;53.180;5.800;2023-06-05T10:28:02;5.47;;;3.05;;
55090;SDS011;40985;53.180;5.800;2023-06-05T10:30:40;4.70;;;3.28;;
55090;SDS011;40985;53.180;5.800;2023-06-05T10:39:09;2.35;;;2.15;;
55090;SDS011;40985;53.180;5.800;2023-06-05T10:41:36;1.92;;;1.83;;
55090;SDS011;40985;53.180;5.800;2023-06-05T10:44:02;2.83;;;2.63;;
55090;SDS011;40985;53.180;5.800;2023-06-05T10:51:36;3.28;;;3.08;;
55090;SDS011;40985;53.180;5.800;2023-06-05T10:54:09;3.35;;;3.05;;
55090;SDS011;40985;53.180;5.800;2023-06-05T10:59:25;3.67;;;3.03;;
55090;SDS011;40985;53.180;5.800;2023-06-05T11:05:02;3.50;;;3.20;;
55090;SDS011;40985;53.180;5.800;2023-06-05T11:07:29;3.25;;;2.70;;
55090;SDS011;40985;53.180;5.800;2023-06-05T11:12:27;4.63;;;2.88;;
55090;SDS011;40985;53.180;5.800;2023-06-05T11:15:16;3.00;;;2.70;;
55090;SDS011;40985;53.180;5.800;2023-06-05T11:17:56;3.25;;;3.05;;
55090;SDS011;40985;53.180;5.800;2023-06-05T11:30:25;2.60;;;2.40;;
55090;SDS011;40985;53.180;5.800;2023-06-05T11:32:54;3.20;;;2.28;;
55090;SDS011;40985;53.180;5.800;2023-06-05T11:35:26;2.40;;;2.20;;
55090;SDS011;40985;53.180;5.800;2023-06-05T11:40:41;3.60;;;2.38;;
55090;SDS011;40985;53.180;5.800;2023-06-05T11:43:09;3.00;;;2.78;;
55090;SDS011;40985;53.180;5.800;2023-06-05T11:45:37;3.10;;;2.90;;
55090;SDS011;40985;53.180;5.800;2023-06-05T11:48:10;3.83;;;3.53;;
55090;SDS011;40985;53.180;5.800;2023-06-05T11:50:38;3.70;;;3.50;;
55090;SDS011;40985;53.180;5.800;2023-06-05T11:53:06;3.75;;;2.63;;
55090;SDS011;40985;53.180;5.800;2023-06-05T11:55:36;4.82;;;2.55;;
55090;SDS011;40985;53.180;5.800;2023-06-05T11:58:21;4.70;;;3.20;;
55090;SDS011;40985;53.180;5.800;2023-06-05T12:00:51;6.05;;;3.10;;
55090;SDS011;40985;53.180;5.800;2023-06-05T12:03:18;3.72;;;3.42;;
55090;SDS011;40985;53.180;5.800;2023-06-05T12:05:46;5.30;;;3.10;;
55090;SDS011;40985;53.180;5.800;2023-06-05T12:08:22;3.80;;;3.47;;
55090;SDS011;40985;53.180;5.800;2023-06-05T12:11:02;3.40;;;3.13;;
55090;SDS011;40985;53.180;5.800;2023-06-05T12:16:43;3.88;;;3.53;;
55090;SDS011;40985;53.180;5.800;2023-06-05T12:19:16;3.30;;;3.10;;
55090;SDS011;40985;53.180;5.800;2023-06-05T12:21:49;4.15;;;3.80;;
55090;SDS011;40985;53.180;5.800;2023-06-05T12:24:23;8.77;;;4.25;;
55090;SDS011;40985;53.180;5.800;2023-06-05T12:29:24;4.57;;;4.13;;
55090;SDS011;40985;53.180;5.800;2023-06-05T12:31:53;4.53;;;4.22;;
55090;SDS011;40985;53.180;5.800;2023-06-05T12:37:09;5.80;;;5.30;;
55090;SDS011;40985;53.180;5.800;2023-06-05T12:39:38;5.03;;;4.57;;
55090;SDS011;40985;53.180;5.800;2023-06-05T12:42:03;4.65;;;4.20;;
55090;SDS011;40985;53.180;5.800;2023-06-05T12:44:30;4.65;;;4.25;;
55090;SDS011;40985;53.180;5.800;2023-06-05T12:46:55;5.10;;;4.60;;
55090;SDS011;40985;53.180;5.800;2023-06-05T12:49:22;5.43;;;4.93;;
55090;SDS011;40985;53.180;5.800;2023-06-05T12:51:47;5.88;;;5.30;;
55090;SDS011;40985;53.180;5.800;2023-06-05T12:54:13;4.65;;;4.30;;
55090;SDS011;40985;53.180;5.800;2023-06-05T12:56:42;5.75;;;4.68;;
55090;SDS011;40985;53.180;5.800;2023-06-05T12:59:10;4.15;;;3.95;;
55090;SDS011;40985;53.180;5.800;2023-06-05T13:01:36;4.88;;;4.47;;
55090;SDS011;40985;53.180;5.800;2023-06-05T13:04:02;4.65;;;4.25;;
55090;SDS011;40985;53.180;5.800;2023-06-05T13:06:27;6.25;;;5.13;;
55090;SDS011;40985;53.180;5.800;2023-06-05T13:08:53;5.95;;;5.28;;
55090;SDS011;40985;53.180;5.800;2023-06-05T13:11:19;6.18;;;5.78;;
55090;SDS011;40985;53.180;5.800;2023-06-05T13:13:44;7.28;;;5.93;;
55090;SDS011;40985;53.180;5.800;2023-06-05T13:16:10;5.57;;;5.00;;
55090;SDS011;40985;53.180;5.800;2023-06-05T13:18:36;5.07;;;4.68;;
55090;SDS011;40985;53.180;5.800;2023-06-05T13:21:02;6.10;;;5.22;;
55090;SDS011;40985;53.180;5.800;2023-06-05T13:23:29;5.65;;;5.05;;
55090;SDS011;40985;53.180;5.800;2023-06-05T13:25:55;5.57;;;5.10;;
55090;SDS011;40985;53.180;5.800;2023-06-05T13:28:21;5.57;;;5.07;;
55090;SDS011;40985;53.180;5.800;2023-06-05T13:30:46;5.30;;;4.80;;
55090;SDS011;40985;53.180;5.800;2023-06-05T13:33:12;4.47;;;4.15;;
55090;SDS011;40985;53.180;5.800;2023-06-05T13:35:39;4.78;;;4.38;;
55090;SDS011;40985;53.180;5.800;2023-06-05T13:38:05;6.03;;;5.32;;
55090;SDS011;40985;53.180;5.800;2023-06-05T13:40:31;5.40;;;4.75;;
55090;SDS011;40985;53.180;5.800;2023-06-05T13:42:58;5.53;;;5.10;;
55090;SDS011;40985;53.180;5.800;2023-06-05T13:45:24;5.18;;;4.78;;
55090;SDS011;40985;53.180;5.800;2023-06-05T13:47:49;6.25;;;5.65;;
55090;SDS011;40985;53.180;5.800;2023-06-05T13:50:16;5.43;;;4.93;;
55090;SDS011;40985;53.180;5.800;2023-06-05T13:52:42;5.03;;;4.63;;
55090;SDS011;40985;53.180;5.800;2023-06-05T13:55:08;6.38;;;4.95;;
55090;SDS011;40985;53.180;5.800;2023-06-05T13:57:34;9.00;;;5.35;;
55090;SDS011;40985;53.180;5.800;2023-06-05T14:00:00;5.82;;;4.55;;
55090;SDS011;40985;53.180;5.800;2023-06-05T14:02:25;5.35;;;4.95;;
55090;SDS011;40985;53.180;5.800;2023-06-05T14:04:51;5.72;;;5.22;;
55090;SDS011;40985;53.180;5.800;2023-06-05T14:07:17;5.82;;;4.93;;
55090;SDS011;40985;53.180;5.800;2023-06-05T14:09:42;5.40;;;4.88;;
55090;SDS011;40985;53.180;5.800;2023-06-05T14:12:08;6.13;;;5.50;;
55090;SDS011;40985;53.180;5.800;2023-06-05T14:14:35;5.45;;;4.90;;
55090;SDS011;40985;53.180;5.800;2023-06-05T14:17:00;5.10;;;4.60;;
55090;SDS011;40985;53.180;5.800;2023-06-05T14:19:26;6.88;;;5.00;;
55090;SDS011;40985;53.180;5.800;2023-06-05T14:21:52;6.75;;;6.25;;
55090;SDS011;40985;53.180;5.800;2023-06-05T14:24:18;9.80;;;6.25;;
55090;SDS011;40985;53.180;5.800;2023-06-05T14:26:44;5.90;;;5.40;;
55090;SDS011;40985;53.180;5.800;2023-06-05T14:29:11;6.28;;;5.70;;
55090;SDS011;40985;53.180;5.800;2023-06-05T14:31:36;6.72;;;5.88;;
55090;SDS011;40985;53.180;5.800;2023-06-05T14:34:02;6.15;;;5.60;;
55090;SDS011;40985;53.180;5.800;2023-06-05T14:36:28;9.50;;;5.47;;
55090;SDS011;40985;53.180;5.800;2023-06-05T14:38:54;6.93;;;5.65;;
55090;SDS011;40985;53.180;5.800;2023-06-05T14:41:20;5.45;;;4.95;;
55090;SDS011;40985;53.180;5.800;2023-06-05T14:43:46;5.43;;;4.93;;
55090;SDS011;40985;53.180;5.800;2023-06-05T14:46:11;6.95;;;5.05;;
55090;SDS011;40985;53.180;5.800;2023-06-05T14:48:37;4.35;;;4.00;;
55090;SDS011;40985;53.180;5.800;2023-06-05T14:51:03;5.15;;;4.65;;
55090;SDS011;40985;53.180;5.800;2023-06-05T14:53:29;4.57;;;4.18;;
55090;SDS011;40985;53.180;5.800;2023-06-05T14:55:57;3.72;;;3.28;;
55090;SDS011;40985;53.180;5.800;2023-06-05T14:58:22;5.97;;;3.80;;
55090;SDS011;40985;53.180;5.800;2023-06-05T15:00:48;4.28;;;3.28;;
55090;SDS011;40985;53.180;5.800;2023-06-05T15:03:14;4.32;;;3.92;;
55090;SDS011;40985;53.180;5.800;2023-06-05T15:05:39;4.30;;;3.78;;
55090;SDS011;40985;53.180;5.800;2023-06-05T15:08:05;5.45;;;2.78;;
55090;SDS011;40985;53.180;5.800;2023-06-05T15:10:31;4.88;;;3.47;;
55090;SDS011;40985;53.180;5.800;2023-06-05T15:12:57;4.43;;;3.42;;
55090;SDS011;40985;53.180;5.800;2023-06-05T15:15:23;2.80;;;2.60;;
55090;SDS011;40985;53.180;5.800;2023-06-05T15:17:49;4.78;;;3.22;;
55090;SDS011;40985;53.180;5.800;2023-06-05T15:20:17;5.95;;;4.13;;
55090;SDS011;40985;53.180;5.800;2023-06-05T15:22:43;4.85;;;4.45;;
55090;SDS011;40985;53.180;5.800;2023-06-05T15:25:10;3.88;;;3.20;;
55090;SDS011;40985;53.180;5.800;2023-06-05T15:27:35;3.38;;;3.03;;
55090;SDS011;40985;53.180;5.800;2023-06-05T15:30:02;4.53;;;3.83;;
55090;SDS011;40985;53.180;5.800;2023-06-05T15:32:28;3.97;;;3.45;;
55090;SDS011;40985;53.180;5.800;2023-06-05T15:34:54;5.50;;;3.80;;